sensor_id;sensor_type;location;lat;lon;timestamp;pressure;altitude;pressure_sealevel;temperature;humidity
46448;BME280;32145;50.390;30.778;2023-09-19T00:00:49;100485.13;;;12.57;71.06
46448;BME280;32145;50.390;30.778;2023-09-19T00:03:45;100500.81;;;12.55;70.92
46448;BME280;32145;50.390;30.778;2023-09-19T00:06:43;100489.94;;;12.55;71.09
46448;BME280;32145;50.390;30.778;2023-09-19T00:09:39;100484.97;;;12.52;71.02
46448;BME280;32145;50.390;30.778;2023-09-19T00:12:35;100493.34;;;12.50;70.84
46448;BME280;32145;50.390;30.778;2023-09-19T00:15:37;100490.41;;;12.52;70.90
46448;BME280;32145;50.390;30.778;2023-09-19T00:18:33;100490.88;;;12.48;70.78
46448;BME280;32145;50.390;30.778;2023-09-19T00:21:31;100497.22;;;12.42;71.12
46448;BME280;32145;50.390;30.778;2023-09-19T00:24:29;100498.31;;;12.41;71.23
46448;BME280;32145;50.390;30.778;2023-09-19T00:27:23;100498.13;;;12.36;71.15
46448;BME280;32145;50.390;30.778;2023-09-19T00:30:17;100498.63;;;12.33;71.24
46448;BME280;32145;50.390;30.778;2023-09-19T00:33:11;100486.56;;;12.29;71.31
46448;BME280;32145;50.390;30.778;2023-09-19T00:36:06;100488.06;;;12.24;71.41
46448;BME280;32145;50.390;30.778;2023-09-19T00:39:00;100487.47;;;12.22;71.19
46448;BME280;32145;50.390;30.778;2023-09-19T00:41:56;100496.06;;;12.19;71.30
46448;BME280;32145;50.390;30.778;2023-09-19T00:44:50;100493.56;;;12.18;71.33
46448;BME280;32145;50.390;30.778;2023-09-19T00:47:47;100491.09;;;12.16;71.62
46448;BME280;32145;50.390;30.778;2023-09-19T00:50:43;100490.94;;;12.11;71.48
46448;BME280;32145;50.390;30.778;2023-09-19T00:53:38;100487.66;;;12.09;71.63
46448;BME280;32145;50.390;30.778;2023-09-19T00:56:32;100488.69;;;12.08;71.48
46448;BME280;32145;50.390;30.778;2023-09-19T00:59:28;100489.75;;;12.07;71.78
46448;BME280;32145;50.390;30.778;2023-09-19T01:02:22;100492.47;;;12.07;72.16
46448;BME280;32145;50.390;30.778;2023-09-19T01:05:17;100491.00;;;12.04;71.89
46448;BME280;32145;50.390;30.778;2023-09-19T01:08:11;100492.28;;;12.02;71.71
46448;BME280;32145;50.390;30.778;2023-09-19T01:11:11;100493.94;;;12.03;72.01
46448;BME280;32145;50.390;30.778;2023-09-19T01:14:16;100484.72;;;12.04;71.85
46448;BME280;32145;50.390;30.778;2023-09-19T01:17:20;100483.53;;;11.99;71.97
46448;BME280;32145;50.390;30.778;2023-09-19T01:20:25;100481.75;;;11.93;72.11
46448;BME280;32145;50.390;30.778;2023-09-19T01:23:24;100487.84;;;11.89;71.99
46448;BME280;32145;50.390;30.778;2023-09-19T01:26:33;100485.75;;;11.91;72.38
46448;BME280;32145;50.390;30.778;2023-09-19T01:29:36;100487.47;;;11.85;72.26
46448;BME280;32145;50.390;30.778;2023-09-19T01:32:33;100491.22;;;11.84;72.54
46448;BME280;32145;50.390;30.778;2023-09-19T01:35:27;100482.72;;;11.80;71.86
46448;BME280;32145;50.390;30.778;2023-09-19T01:38:21;100489.44;;;11.78;72.30
46448;BME280;32145;50.390;30.778;2023-09-19T01:41:19;100488.38;;;11.79;71.95
46448;BME280;32145;50.390;30.778;2023-09-19T01:44:24;100492.16;;;11.78;71.90
46448;BME280;32145;50.390;30.778;2023-09-19T01:47:26;100495.94;;;11.77;72.44
46448;BME280;32145;50.390;30.778;2023-09-19T01:50:30;100487.16;;;11.75;72.52
46448;BME280;32145;50.390;30.778;2023-09-19T01:53:28;100482.63;;;11.68;72.44
46448;BME280;32145;50.390;30.778;2023-09-19T01:56:29;100487.78;;;11.77;73.11
46448;BME280;32145;50.390;30.778;2023-09-19T01:59:34;100476.38;;;11.68;72.15
46448;BME280;32145;50.390;30.778;2023-09-19T02:02:33;100475.63;;;11.60;72.10
46448;BME280;32145;50.390;30.778;2023-09-19T02:05:32;100480.44;;;11.58;71.81
46448;BME280;32145;50.390;30.778;2023-09-19T02:08:28;100473.56;;;11.56;72.56
46448;BME280;32145;50.390;30.778;2023-09-19T02:11:22;100471.69;;;11.56;72.22
46448;BME280;32145;50.390;30.778;2023-09-19T02:14:16;100473.56;;;11.56;72.41
46448;BME280;32145;50.390;30.778;2023-09-19T02:17:13;100467.56;;;11.54;72.49
46448;BME280;32145;50.390;30.778;2023-09-19T02:20:10;100454.44;;;11.51;72.44
46448;BME280;32145;50.390;30.778;2023-09-19T02:23:06;100458.19;;;11.50;72.62
46448;BME280;32145;50.390;30.778;2023-09-19T02:26:00;100459.50;;;11.47;72.84
46448;BME280;32145;50.390;30.778;2023-09-19T02:28:55;100454.50;;;11.44;72.17
46448;BME280;32145;50.390;30.778;2023-09-19T02:31:49;100452.47;;;11.39;72.20
46448;BME280;32145;50.390;30.778;2023-09-19T02:34:43;100455.16;;;11.39;72.78
46448;BME280;32145;50.390;30.778;2023-09-19T02:37:38;100454.59;;;11.37;72.58
46448;BME280;32145;50.390;30.778;2023-09-19T02:40:33;100453.97;;;11.35;72.65
46448;BME280;32145;50.390;30.778;2023-09-19T02:43:27;100458.53;;;11.34;72.42
46448;BME280;32145;50.390;30.778;2023-09-19T02:46:22;100455.03;;;11.34;72.97
46448;BME280;32145;50.390;30.778;2023-09-19T02:49:16;100449.59;;;11.34;72.97
46448;BME280;32145;50.390;30.778;2023-09-19T02:52:11;100447.69;;;11.34;72.58
46448;BME280;32145;50.390;30.778;2023-09-19T02:55:05;100444.16;;;11.34;72.33
46448;BME280;32145;50.390;30.778;2023-09-19T02:58:01;100435.41;;;11.32;72.36
46448;BME280;32145;50.390;30.778;2023-09-19T03:00:55;100430.41;;;11.29;72.61
46448;BME280;32145;50.390;30.778;2023-09-19T03:03:50;100428.19;;;11.26;72.51
46448;BME280;32145;50.390;30.778;2023-09-19T03:06:44;100429.69;;;11.21;72.86
46448;BME280;32145;50.390;30.778;2023-09-19T03:09:38;100426.34;;;11.19;72.73
46448;BME280;32145;50.390;30.778;2023-09-19T03:12:33;100428.00;;;11.20;72.75
46448;BME280;32145;50.390;30.778;2023-09-19T03:15:28;100428.47;;;11.17;72.74
46448;BME280;32145;50.390;30.778;2023-09-19T03:18:25;100424.06;;;11.16;73.16
46448;BME280;32145;50.390;30.778;2023-09-19T03:21:21;100420.31;;;11.17;72.89
46448;BME280;32145;50.390;30.778;2023-09-19T03:24:17;100418.66;;;11.16;73.01
46448;BME280;32145;50.390;30.778;2023-09-19T03:27:14;100425.13;;;11.15;72.54
46448;BME280;32145;50.390;30.778;2023-09-19T03:30:10;100416.84;;;11.10;72.78
46448;BME280;32145;50.390;30.778;2023-09-19T03:33:06;100417.44;;;11.12;72.72
46448;BME280;32145;50.390;30.778;2023-09-19T03:36:01;100423.94;;;11.11;72.72
46448;BME280;32145;50.390;30.778;2023-09-19T03:38:55;100421.66;;;11.08;73.13
46448;BME280;32145;50.390;30.778;2023-09-19T03:41:49;100425.44;;;11.07;73.39
46448;BME280;32145;50.390;30.778;2023-09-19T03:44:44;100424.38;;;11.08;73.05
46448;BME280;32145;50.390;30.778;2023-09-19T03:47:39;100427.91;;;11.08;73.44
46448;BME280;32145;50.390;30.778;2023-09-19T03:50:37;100426.63;;;11.11;73.35
46448;BME280;32145;50.390;30.778;2023-09-19T03:53:33;100421.84;;;11.13;72.63
46448;BME280;32145;50.390;30.778;2023-09-19T03:56:29;100420.78;;;11.14;72.62
46448;BME280;32145;50.390;30.778;2023-09-19T03:59:26;100424.28;;;11.15;73.42
46448;BME280;32145;50.390;30.778;2023-09-19T04:02:22;100408.84;;;11.15;73.30
46448;BME280;32145;50.390;30.778;2023-09-19T04:05:18;100415.72;;;11.18;73.19
46448;BME280;32145;50.390;30.778;2023-09-19T04:08:16;100424.25;;;11.21;73.17
46448;BME280;32145;50.390;30.778;2023-09-19T04:11:12;100424.41;;;11.27;73.20
46448;BME280;32145;50.390;30.778;2023-09-19T04:14:09;100422.88;;;11.31;73.14
46448;BME280;32145;50.390;30.778;2023-09-19T04:17:05;100414.44;;;11.39;73.13
46448;BME280;32145;50.390;30.778;2023-09-19T04:20:02;100417.31;;;11.44;73.25
46448;BME280;32145;50.390;30.778;2023-09-19T04:22:58;100408.84;;;11.53;72.89
46448;BME280;32145;50.390;30.778;2023-09-19T04:25:56;100412.50;;;11.65;73.35
46448;BME280;32145;50.390;30.778;2023-09-19T04:28:52;100409.38;;;11.80;73.18
46448;BME280;32145;50.390;30.778;2023-09-19T04:31:48;100410.88;;;11.95;72.81
46448;BME280;32145;50.390;30.778;2023-09-19T04:34:45;100403.97;;;12.11;72.47
46448;BME280;32145;50.390;30.778;2023-09-19T04:37:41;100414.19;;;12.28;72.59
46448;BME280;32145;50.390;30.778;2023-09-19T04:40:36;100403.47;;;12.45;72.17
46448;BME280;32145;50.390;30.778;2023-09-19T04:43:31;100408.47;;;12.60;71.96
46448;BME280;32145;50.390;30.778;2023-09-19T04:46:28;100407.81;;;12.76;71.50
46448;BME280;32145;50.390;30.778;2023-09-19T04:49:24;100401.06;;;12.91;71.25
46448;BME280;32145;50.390;30.778;2023-09-19T04:52:20;100395.38;;;13.05;70.66
46448;BME280;32145;50.390;30.778;2023-09-19T04:55:15;100398.09;;;13.17;70.36
46448;BME280;32145;50.390;30.778;2023-09-19T04:58:09;100406.25;;;13.28;70.05
46448;BME280;32145;50.390;30.778;2023-09-19T05:01:07;100404.09;;;13.43;69.76
46448;BME280;32145;50.390;30.778;2023-09-19T05:04:04;100397.00;;;13.53;69.52
46448;BME280;32145;50.390;30.778;2023-09-19T05:07:00;100395.06;;;13.66;69.28
46448;BME280;32145;50.390;30.778;2023-09-19T05:09:56;100391.25;;;13.79;68.83
46448;BME280;32145;50.390;30.778;2023-09-19T05:12:53;100392.03;;;13.91;68.47
46448;BME280;32145;50.390;30.778;2023-09-19T05:15:49;100390.31;;;14.02;68.18
46448;BME280;32145;50.390;30.778;2023-09-19T05:18:47;100386.94;;;14.12;67.78
46448;BME280;32145;50.390;30.778;2023-09-19T05:21:43;100388.47;;;14.20;67.49
46448;BME280;32145;50.390;30.778;2023-09-19T05:24:39;100392.50;;;14.35;67.07
46448;BME280;32145;50.390;30.778;2023-09-19T05:27:36;100393.53;;;14.46;66.91
46448;BME280;32145;50.390;30.778;2023-09-19T05:30:32;100400.81;;;14.57;66.90
46448;BME280;32145;50.390;30.778;2023-09-19T05:33:28;100406.19;;;14.69;66.26
46448;BME280;32145;50.390;30.778;2023-09-19T05:36:26;100406.38;;;14.79;66.31
46448;BME280;32145;50.390;30.778;2023-09-19T05:39:22;100409.75;;;14.87;65.99
46448;BME280;32145;50.390;30.778;2023-09-19T05:42:19;100408.28;;;14.96;65.52
46448;BME280;32145;50.390;30.778;2023-09-19T05:45:15;100404.03;;;15.05;65.50
46448;BME280;32145;50.390;30.778;2023-09-19T05:48:14;100406.59;;;15.12;65.74
46448;BME280;32145;50.390;30.778;2023-09-19T05:51:08;100414.03;;;15.17;65.29
46448;BME280;32145;50.390;30.778;2023-09-19T05:54:04;100410.94;;;15.30;65.36
46448;BME280;32145;50.390;30.778;2023-09-19T05:56:58;100407.34;;;15.47;65.01
46448;BME280;32145;50.390;30.778;2023-09-19T05:59:53;100404.22;;;15.61;64.73
46448;BME280;32145;50.390;30.778;2023-09-19T06:02:50;100405.50;;;15.75;64.50
46448;BME280;32145;50.390;30.778;2023-09-19T06:05:44;100410.00;;;15.87;64.22
46448;BME280;32145;50.390;30.778;2023-09-19T06:08:38;100402.50;;;15.99;63.69
46448;BME280;32145;50.390;30.778;2023-09-19T06:11:34;100398.25;;;16.14;63.23
46448;BME280;32145;50.390;30.778;2023-09-19T06:14:28;100388.06;;;16.31;62.81
46448;BME280;32145;50.390;30.778;2023-09-19T06:17:22;100390.66;;;16.48;62.25
46448;BME280;32145;50.390;30.778;2023-09-19T06:20:17;100396.22;;;16.59;61.58
46448;BME280;32145;50.390;30.778;2023-09-19T06:23:11;100395.47;;;16.69;60.82
46448;BME280;32145;50.390;30.778;2023-09-19T06:26:05;100395.03;;;16.82;60.48
46448;BME280;32145;50.390;30.778;2023-09-19T06:29:01;100396.22;;;16.97;59.75
46448;BME280;32145;50.390;30.778;2023-09-19T06:31:55;100396.81;;;17.04;59.46
46448;BME280;32145;50.390;30.778;2023-09-19T06:34:52;100400.44;;;17.10;59.03
46448;BME280;32145;50.390;30.778;2023-09-19T06:37:48;100394.50;;;17.23;58.99
46448;BME280;32145;50.390;30.778;2023-09-19T06:40:44;100395.97;;;17.42;58.58
46448;BME280;32145;50.390;30.778;2023-09-19T06:43:41;100392.16;;;17.53;58.14
46448;BME280;32145;50.390;30.778;2023-09-19T06:46:38;100397.69;;;17.69;57.90
46448;BME280;32145;50.390;30.778;2023-09-19T06:49:35;100405.44;;;17.82;57.36
46448;BME280;32145;50.390;30.778;2023-09-19T06:52:31;100396.41;;;17.97;56.90
46448;BME280;32145;50.390;30.778;2023-09-19T06:55:28;100402.72;;;18.03;56.27
46448;BME280;32145;50.390;30.778;2023-09-19T06:58:24;100403.34;;;18.15;56.27
46448;BME280;32145;50.390;30.778;2023-09-19T07:01:21;100392.66;;;18.19;54.71
46448;BME280;32145;50.390;30.778;2023-09-19T07:04:18;100400.31;;;18.22;54.61
46448;BME280;32145;50.390;30.778;2023-09-19T07:07:14;100411.88;;;18.19;53.91
46448;BME280;32145;50.390;30.778;2023-09-19T07:10:11;100415.16;;;18.16;54.04
46448;BME280;32145;50.390;30.778;2023-09-19T07:13:07;100403.63;;;18.19;53.97
46448;BME280;32145;50.390;30.778;2023-09-19T07:16:04;100407.19;;;18.35;53.92
46448;BME280;32145;50.390;30.778;2023-09-19T07:19:00;100395.41;;;18.55;53.93
46448;BME280;32145;50.390;30.778;2023-09-19T07:21:58;100402.81;;;18.76;53.95
46448;BME280;32145;50.390;30.778;2023-09-19T07:24:54;100398.16;;;18.87;53.71
46448;BME280;32145;50.390;30.778;2023-09-19T07:27:50;100397.31;;;18.91;53.31
46448;BME280;32145;50.390;30.778;2023-09-19T07:30:46;100394.03;;;18.89;53.11
46448;BME280;32145;50.390;30.778;2023-09-19T07:33:43;100386.31;;;19.02;53.38
46448;BME280;32145;50.390;30.778;2023-09-19T07:36:37;100392.59;;;19.18;53.27
46448;BME280;32145;50.390;30.778;2023-09-19T07:39:33;100395.59;;;19.27;52.84
46448;BME280;32145;50.390;30.778;2023-09-19T07:42:27;100383.50;;;19.33;52.86
46448;BME280;32145;50.390;30.778;2023-09-19T07:45:22;100386.72;;;19.51;52.55
46448;BME280;32145;50.390;30.778;2023-09-19T07:48:16;100387.22;;;19.68;52.37
46448;BME280;32145;50.390;30.778;2023-09-19T07:51:10;100383.00;;;19.81;52.03
46448;BME280;32145;50.390;30.778;2023-09-19T07:54:07;100384.88;;;19.91;51.97
46448;BME280;32145;50.390;30.778;2023-09-19T07:57:05;100387.06;;;20.00;50.71
46448;BME280;32145;50.390;30.778;2023-09-19T08:00:01;100386.50;;;19.98;49.96
46448;BME280;32145;50.390;30.778;2023-09-19T08:02:57;100376.06;;;20.00;49.71
46448;BME280;32145;50.390;30.778;2023-09-19T08:05:56;100371.31;;;20.05;49.29
46448;BME280;32145;50.390;30.778;2023-09-19T08:08:52;100358.91;;;20.13;49.15
46448;BME280;32145;50.390;30.778;2023-09-19T08:11:48;100360.22;;;20.21;48.75
46448;BME280;32145;50.390;30.778;2023-09-19T08:14:46;100349.34;;;20.35;48.96
46448;BME280;32145;50.390;30.778;2023-09-19T08:17:42;100343.63;;;20.61;48.45
46448;BME280;32145;50.390;30.778;2023-09-19T08:20:39;100356.69;;;20.80;47.64
46448;BME280;32145;50.390;30.778;2023-09-19T08:23:35;100351.69;;;20.82;46.17
46448;BME280;32145;50.390;30.778;2023-09-19T08:26:31;100349.00;;;20.77;46.06
46448;BME280;32145;50.390;30.778;2023-09-19T08:29:28;100347.31;;;20.81;46.03
46448;BME280;32145;50.390;30.778;2023-09-19T08:32:25;100344.78;;;20.90;45.90
46448;BME280;32145;50.390;30.778;2023-09-19T08:35:20;100326.41;;;21.04;46.00
46448;BME280;32145;50.390;30.778;2023-09-19T08:38:15;100330.88;;;21.24;45.73
46448;BME280;32145;50.390;30.778;2023-09-19T08:41:09;100324.03;;;21.41;45.18
46448;BME280;32145;50.390;30.778;2023-09-19T08:44:03;100328.66;;;21.46;44.67
46448;BME280;32145;50.390;30.778;2023-09-19T08:47:10;100319.19;;;21.52;43.81
46448;BME280;32145;50.390;30.778;2023-09-19T08:50:10;100325.41;;;21.63;43.39
46448;BME280;32145;50.390;30.778;2023-09-19T08:53:10;100321.97;;;21.71;42.07
46448;BME280;32145;50.390;30.778;2023-09-19T08:56:08;100314.78;;;21.70;42.27
46448;BME280;32145;50.390;30.778;2023-09-19T08:59:03;100316.41;;;21.76;42.57
46448;BME280;32145;50.390;30.778;2023-09-19T09:01:58;100305.28;;;21.82;41.67
46448;BME280;32145;50.390;30.778;2023-09-19T09:04:53;100301.09;;;21.84;40.82
46448;BME280;32145;50.390;30.778;2023-09-19T09:07:50;100309.53;;;21.93;41.56
46448;BME280;32145;50.390;30.778;2023-09-19T09:10:44;100301.69;;;22.00;40.26
46448;BME280;32145;50.390;30.778;2023-09-19T09:13:39;100303.63;;;22.00;39.83
46448;BME280;32145;50.390;30.778;2023-09-19T09:16:33;100293.03;;;22.07;39.84
46448;BME280;32145;50.390;30.778;2023-09-19T09:19:27;100289.25;;;22.17;39.96
46448;BME280;32145;50.390;30.778;2023-09-19T09:22:22;100292.47;;;22.24;39.67
46448;BME280;32145;50.390;30.778;2023-09-19T09:25:17;100290.13;;;22.32;40.06
46448;BME280;32145;50.390;30.778;2023-09-19T09:28:12;100299.94;;;22.38;39.75
46448;BME280;32145;50.390;30.778;2023-09-19T09:31:24;100287.91;;;22.48;39.74
46448;BME280;32145;50.390;30.778;2023-09-19T09:34:19;100285.97;;;22.48;38.13
46448;BME280;32145;50.390;30.778;2023-09-19T09:37:14;100284.03;;;22.49;38.14
46448;BME280;32145;50.390;30.778;2023-09-19T09:40:10;100278.50;;;22.49;38.11
46448;BME280;32145;50.390;30.778;2023-09-19T09:43:25;100286.50;;;22.50;37.90
46448;BME280;32145;50.390;30.778;2023-09-19T09:46:21;100265.72;;;22.53;37.53
46448;BME280;32145;50.390;30.778;2023-09-19T09:49:23;100272.44;;;22.66;37.89
46448;BME280;32145;50.390;30.778;2023-09-19T09:52:19;100272.81;;;22.73;37.36
46448;BME280;32145;50.390;30.778;2023-09-19T09:55:16;100281.41;;;22.86;37.73
46448;BME280;32145;50.390;30.778;2023-09-19T09:58:18;100266.50;;;22.87;36.15
46448;BME280;32145;50.390;30.778;2023-09-19T10:01:12;100263.19;;;22.85;36.55
46448;BME280;32145;50.390;30.778;2023-09-19T10:04:06;100273.03;;;22.91;36.07
46448;BME280;32145;50.390;30.778;2023-09-19T10:07:01;100265.47;;;22.97;35.94
46448;BME280;32145;50.390;30.778;2023-09-19T10:09:55;100268.94;;;23.02;36.24
46448;BME280;32145;50.390;30.778;2023-09-19T10:12:51;100268.09;;;23.16;36.60
46448;BME280;32145;50.390;30.778;2023-09-19T10:15:51;100256.31;;;23.24;36.49
46448;BME280;32145;50.390;30.778;2023-09-19T10:18:46;100263.28;;;23.36;36.63
46448;BME280;32145;50.390;30.778;2023-09-19T10:21:43;100254.38;;;23.39;36.33
46448;BME280;32145;50.390;30.778;2023-09-19T10:24:38;100254.09;;;23.49;36.57
46448;BME280;32145;50.390;30.778;2023-09-19T10:27:35;100243.63;;;23.60;35.90
46448;BME280;32145;50.390;30.778;2023-09-19T10:30:32;100241.88;;;23.64;35.94
46448;BME280;32145;50.390;30.778;2023-09-19T10:33:35;100244.38;;;23.75;35.27
46448;BME280;32145;50.390;30.778;2023-09-19T10:36:33;100237.28;;;23.83;35.12
46448;BME280;32145;50.390;30.778;2023-09-19T10:39:30;100231.00;;;23.91;35.26
46448;BME280;32145;50.390;30.778;2023-09-19T10:42:28;100223.38;;;23.97;34.61
46448;BME280;32145;50.390;30.778;2023-09-19T10:45:28;100218.00;;;24.00;34.77
46448;BME280;32145;50.390;30.778;2023-09-19T10:48:26;100211.84;;;24.03;33.49
46448;BME280;32145;50.390;30.778;2023-09-19T10:51:26;100215.25;;;24.00;33.79
46448;BME280;32145;50.390;30.778;2023-09-19T10:54:27;100207.94;;;24.04;33.86
46448;BME280;32145;50.390;30.778;2023-09-19T10:57:23;100211.63;;;24.14;34.61
46448;BME280;32145;50.390;30.778;2023-09-19T11:00:18;100203.69;;;24.21;33.99
46448;BME280;32145;50.390;30.778;2023-09-19T11:03:22;100212.66;;;24.27;33.64
46448;BME280;32145;50.390;30.778;2023-09-19T11:06:18;100198.00;;;24.26;33.68
46448;BME280;32145;50.390;30.778;2023-09-19T11:09:14;100193.44;;;24.30;33.23
46448;BME280;32145;50.390;30.778;2023-09-19T11:12:10;100193.44;;;24.30;33.32
46448;BME280;32145;50.390;30.778;2023-09-19T11:15:07;100190.25;;;24.46;33.39
46448;BME280;32145;50.390;30.778;2023-09-19T11:21:40;100203.00;;;24.56;31.92
46448;BME280;32145;50.390;30.778;2023-09-19T11:24:38;100185.22;;;24.57;31.52
46448;BME280;32145;50.390;30.778;2023-09-19T11:27:34;100179.53;;;24.62;32.24
46448;BME280;32145;50.390;30.778;2023-09-19T11:30:31;100175.81;;;24.67;31.92
46448;BME280;32145;50.390;30.778;2023-09-19T11:33:28;100166.84;;;24.70;32.13
46448;BME280;32145;50.390;30.778;2023-09-19T11:36:34;100163.44;;;24.82;31.09
46448;BME280;32145;50.390;30.778;2023-09-19T11:39:30;100163.66;;;24.86;31.73
46448;BME280;32145;50.390;30.778;2023-09-19T11:42:44;100176.88;;;24.89;31.12
46448;BME280;32145;50.390;30.778;2023-09-19T11:46:06;100164.16;;;24.96;32.14
46448;BME280;32145;50.390;30.778;2023-09-19T11:49:05;100167.56;;;25.02;31.39
46448;BME280;32145;50.390;30.778;2023-09-19T11:52:04;100158.91;;;24.95;31.00
46448;BME280;32145;50.390;30.778;2023-09-19T11:55:00;100152.56;;;24.94;31.53
46448;BME280;32145;50.390;30.778;2023-09-19T11:57:58;100153.66;;;24.84;30.69
46448;BME280;32145;50.390;30.778;2023-09-19T12:00:56;100148.66;;;24.87;30.95
46448;BME280;32145;50.390;30.778;2023-09-19T12:03:55;100141.47;;;24.86;31.03
46448;BME280;32145;50.390;30.778;2023-09-19T12:06:56;100138.81;;;24.80;31.46
46448;BME280;32145;50.390;30.778;2023-09-19T12:10:03;100142.78;;;24.97;31.44
46448;BME280;32145;50.390;30.778;2023-09-19T12:13:01;100144.25;;;25.03;30.94
46448;BME280;32145;50.390;30.778;2023-09-19T12:15:58;100128.91;;;25.15;31.71
46448;BME280;32145;50.390;30.778;2023-09-19T12:18:54;100137.38;;;25.18;31.21
46448;BME280;32145;50.390;30.778;2023-09-19T12:21:54;100136.91;;;25.25;30.93
46448;BME280;32145;50.390;30.778;2023-09-19T12:24:50;100122.72;;;25.27;30.52
46448;BME280;32145;50.390;30.778;2023-09-19T12:27:48;100125.66;;;25.21;30.31
46448;BME280;32145;50.390;30.778;2023-09-19T12:30:44;100119.13;;;25.26;30.67
46448;BME280;32145;50.390;30.778;2023-09-19T12:33:38;100113.41;;;25.31;30.23
46448;BME280;32145;50.390;30.778;2023-09-19T12:36:32;100103.13;;;25.32;30.95
46448;BME280;32145;50.390;30.778;2023-09-19T12:39:26;100103.78;;;25.29;30.25
46448;BME280;32145;50.390;30.778;2023-09-19T12:42:22;100101.81;;;25.29;29.42
46448;BME280;32145;50.390;30.778;2023-09-19T12:45:17;100093.97;;;25.31;29.63
46448;BME280;32145;50.390;30.778;2023-09-19T12:48:22;100094.47;;;25.33;30.32
46448;BME280;32145;50.390;30.778;2023-09-19T12:51:17;100090.03;;;25.50;30.08
46448;BME280;32145;50.390;30.778;2023-09-19T12:54:11;100096.25;;;25.65;29.60
46448;BME280;32145;50.390;30.778;2023-09-19T12:57:06;100096.72;;;25.58;29.10
46448;BME280;32145;50.390;30.778;2023-09-19T13:00:00;100091.19;;;25.49;29.33
46448;BME280;32145;50.390;30.778;2023-09-19T13:03:16;100086.94;;;25.60;29.63
46448;BME280;32145;50.390;30.778;2023-09-19T13:06:13;100090.63;;;25.73;29.89
46448;BME280;32145;50.390;30.778;2023-09-19T13:09:10;100083.91;;;25.83;30.05
46448;BME280;32145;50.390;30.778;2023-09-19T13:12:01;100082.78;;;25.84;28.91
46448;BME280;32145;50.390;30.778;2023-09-19T13:15:07;100073.72;;;25.66;28.47
46448;BME280;32145;50.390;30.778;2023-09-19T13:18:11;100078.56;;;25.69;29.01
46448;BME280;32145;50.390;30.778;2023-09-19T13:21:08;100079.19;;;25.84;28.92
46448;BME280;32145;50.390;30.778;2023-09-19T13:24:20;100071.84;;;25.79;28.63
46448;BME280;32145;50.390;30.778;2023-09-19T13:27:14;100073.66;;;25.75;28.92
46448;BME280;32145;50.390;30.778;2023-09-19T13:30:11;100074.28;;;25.81;29.50
46448;BME280;32145;50.390;30.778;2023-09-19T13:33:10;100068.06;;;25.84;28.80
46448;BME280;32145;50.390;30.778;2023-09-19T13:36:06;100064.97;;;25.85;29.33
46448;BME280;32145;50.390;30.778;2023-09-19T13:39:03;100051.56;;;25.87;29.45
46448;BME280;32145;50.390;30.778;2023-09-19T13:42:01;100060.06;;;25.82;28.91
46448;BME280;32145;50.390;30.778;2023-09-19T13:44:57;100051.31;;;25.71;29.09
46448;BME280;32145;50.390;30.778;2023-09-19T13:47:51;100047.06;;;25.65;28.57
46448;BME280;32145;50.390;30.778;2023-09-19T13:50:46;100040.53;;;25.70;29.38
46448;BME280;32145;50.390;30.778;2023-09-19T13:53:40;100050.03;;;25.69;28.84
46448;BME280;32145;50.390;30.778;2023-09-19T13:56:34;100037.66;;;25.57;28.61
46448;BME280;32145;50.390;30.778;2023-09-19T13:59:30;100044.16;;;25.44;28.39
46448;BME280;32145;50.390;30.778;2023-09-19T14:02:24;100041.13;;;25.37;28.68
46448;BME280;32145;50.390;30.778;2023-09-19T14:05:19;100035.72;;;25.31;28.68
46448;BME280;32145;50.390;30.778;2023-09-19T14:08:13;100023.31;;;25.29;28.38
46448;BME280;32145;50.390;30.778;2023-09-19T14:11:08;100031.66;;;25.29;28.99
46448;BME280;32145;50.390;30.778;2023-09-19T14:14:02;100026.28;;;25.32;29.28
46448;BME280;32145;50.390;30.778;2023-09-19T14:16:58;100027.41;;;25.31;29.08
46448;BME280;32145;50.390;30.778;2023-09-19T14:19:54;100016.47;;;25.26;29.04
46448;BME280;32145;50.390;30.778;2023-09-19T14:22:50;100025.31;;;25.19;28.94
46448;BME280;32145;50.390;30.778;2023-09-19T14:25:46;100018.47;;;25.17;28.87
46448;BME280;32145;50.390;30.778;2023-09-19T14:28:43;100019.59;;;25.16;29.34
46448;BME280;32145;50.390;30.778;2023-09-19T14:31:41;100016.53;;;25.08;29.09
46448;BME280;32145;50.390;30.778;2023-09-19T14:34:39;100016.88;;;24.98;29.44
46448;BME280;32145;50.390;30.778;2023-09-19T14:37:33;100012.47;;;24.97;29.41
46448;BME280;32145;50.390;30.778;2023-09-19T14:40:27;100011.66;;;24.96;29.66
46448;BME280;32145;50.390;30.778;2023-09-19T14:43:22;100004.81;;;24.94;29.38
46448;BME280;32145;50.390;30.778;2023-09-19T14:46:16;100003.81;;;24.90;29.61
46448;BME280;32145;50.390;30.778;2023-09-19T14:49:12;100003.16;;;24.84;29.67
46448;BME280;32145;50.390;30.778;2023-09-19T14:52:11;100003.31;;;24.79;30.03
46448;BME280;32145;50.390;30.778;2023-09-19T14:55:08;100001.34;;;24.70;30.32
46448;BME280;32145;50.390;30.778;2023-09-19T14:58:02;100004.47;;;24.60;30.39
46448;BME280;32145;50.390;30.778;2023-09-19T15:01:03;100001.22;;;24.49;30.55
46448;BME280;32145;50.390;30.778;2023-09-19T15:03:57;100000.84;;;24.33;31.16
46448;BME280;32145;50.390;30.778;2023-09-19T15:06:53;100004.75;;;24.23;31.20
46448;BME280;32145;50.390;30.778;2023-09-19T15:09:51;100003.56;;;24.06;31.35
46448;BME280;32145;50.390;30.778;2023-09-19T15:12:47;99994.06;;;23.90;31.47
46448;BME280;32145;50.390;30.778;2023-09-19T15:15:44;99994.81;;;23.73;31.80